sensor_id;sensor_type;location;lat;lon;timestamp;temperature;humidity
73829;SHT30;62176;48.450;-4.466;2022-07-21T00:01:13;18.56;74.13
73829;SHT30;62176;48.450;-4.466;2022-07-21T00:03:38;18.52;74.33
73829;SHT30;62176;48.450;-4.466;2022-07-21T00:06:04;18.53;74.35
73829;SHT30;62176;48.450;-4.466;2022-07-21T00:08:30;18.54;74.41
73829;SHT30;62176;48.450;-4.466;2022-07-21T00:10:55;18.57;74.36
73829;SHT30;62176;48.450;-4.466;2022-07-21T00:13:21;18.57;74.38
73829;SHT30;62176;48.450;-4.466;2022-07-21T00:15:47;18.56;74.24
73829;SHT30;62176;48.450;-4.466;2022-07-21T00:18:14;18.52;74.39
73829;SHT30;62176;48.450;-4.466;2022-07-21T00:20:40;18.49;74.54
73829;SHT30;62176;48.450;-4.466;2022-07-21T00:23:05;18.50;74.24
73829;SHT30;62176;48.450;-4.466;2022-07-21T00:25:31;18.47;74.40
73829;SHT30;62176;48.450;-4.466;2022-07-21T00:27:56;18.47;74.37
73829;SHT30;62176;48.450;-4.466;2022-07-21T00:30:22;18.47;74.26
73829;SHT30;62176;48.450;-4.466;2022-07-21T00:32:48;18.46;74.44
73829;SHT30;62176;48.450;-4.466;2022-07-21T00:35:13;18.50;74.29
73829;SHT30;62176;48.450;-4.466;2022-07-21T00:37:39;18.49;74.55
73829;SHT30;62176;48.450;-4.466;2022-07-21T00:40:06;18.47;74.36
73829;SHT30;62176;48.450;-4.466;2022-07-21T00:42:33;18.47;74.56
73829;SHT30;62176;48.450;-4.466;2022-07-21T00:44:59;18.53;74.16
73829;SHT30;62176;48.450;-4.466;2022-07-21T00:47:28;18.50;74.21
73829;SHT30;62176;48.450;-4.466;2022-07-21T00:49:54;18.49;74.01
73829;SHT30;62176;48.450;-4.466;2022-07-21T00:52:20;18.50;74.17
73829;SHT30;62176;48.450;-4.466;2022-07-21T00:54:46;18.46;74.37
73829;SHT30;62176;48.450;-4.466;2022-07-21T00:57:12;18.47;74.08
73829;SHT30;62176;48.450;-4.466;2022-07-21T00:59:39;18.49;74.29
73829;SHT30;62176;48.450;-4.466;2022-07-21T01:02:05;18.49;74.34
73829;SHT30;62176;48.450;-4.466;2022-07-21T01:04:30;18.52;74.08
73829;SHT30;62176;48.450;-4.466;2022-07-21T01:06:57;18.53;74.14
73829;SHT30;62176;48.450;-4.466;2022-07-21T01:09:22;18.54;74.02
73829;SHT30;62176;48.450;-4.466;2022-07-21T01:11:48;18.49;73.82
73829;SHT30;62176;48.450;-4.466;2022-07-21T01:14:15;18.49;73.93
73829;SHT30;62176;48.450;-4.466;2022-07-21T01:16:41;18.43;73.70
73829;SHT30;62176;48.450;-4.466;2022-07-21T01:19:09;18.42;73.56
73829;SHT30;62176;48.450;-4.466;2022-07-21T01:21:37;18.43;73.73
73829;SHT30;62176;48.450;-4.466;2022-07-21T01:24:04;18.42;73.35
73829;SHT30;62176;48.450;-4.466;2022-07-21T01:26:31;18.40;73.62
73829;SHT30;62176;48.450;-4.466;2022-07-21T01:28:57;18.44;73.53
73829;SHT30;62176;48.450;-4.466;2022-07-21T01:31:23;18.44;73.47
73829;SHT30;62176;48.450;-4.466;2022-07-21T01:33:49;18.46;73.30
73829;SHT30;62176;48.450;-4.466;2022-07-21T01:36:15;18.46;72.79
73829;SHT30;62176;48.450;-4.466;2022-07-21T01:38:41;18.42;72.82
73829;SHT30;62176;48.450;-4.466;2022-07-21T01:41:25;18.43;72.86
73829;SHT30;62176;48.450;-4.466;2022-07-21T01:44:04;18.46;72.67
73829;SHT30;62176;48.450;-4.466;2022-07-21T01:46:33;18.47;72.54
73829;SHT30;62176;48.450;-4.466;2022-07-21T01:48:59;18.46;72.13
73829;SHT30;62176;48.450;-4.466;2022-07-21T01:51:24;18.39;71.91
73829;SHT30;62176;48.450;-4.466;2022-07-21T01:53:51;18.34;71.98
73829;SHT30;62176;48.450;-4.466;2022-07-21T01:56:19;18.32;72.27
73829;SHT30;62176;48.450;-4.466;2022-07-21T01:58:45;18.29;71.53
73829;SHT30;62176;48.450;-4.466;2022-07-21T02:01:11;18.30;72.28
73829;SHT30;62176;48.450;-4.466;2022-07-21T02:03:36;18.36;71.83
73829;SHT30;62176;48.450;-4.466;2022-07-21T02:06:03;18.30;71.40
73829;SHT30;62176;48.450;-4.466;2022-07-21T02:08:30;18.29;71.83
73829;SHT30;62176;48.450;-4.466;2022-07-21T02:10:56;18.29;71.52
73829;SHT30;62176;48.450;-4.466;2022-07-21T02:13:21;18.32;71.58
73829;SHT30;62176;48.450;-4.466;2022-07-21T02:15:47;18.28;70.97
73829;SHT30;62176;48.450;-4.466;2022-07-21T02:18:12;18.26;70.90
73829;SHT30;62176;48.450;-4.466;2022-07-21T02:20:38;18.25;71.12
73829;SHT30;62176;48.450;-4.466;2022-07-21T02:23:03;18.29;71.55
73829;SHT30;62176;48.450;-4.466;2022-07-21T02:25:28;18.30;71.13
73829;SHT30;62176;48.450;-4.466;2022-07-21T02:27:54;18.28;70.74
73829;SHT30;62176;48.450;-4.466;2022-07-21T02:30:19;18.25;71.22
73829;SHT30;62176;48.450;-4.466;2022-07-21T02:32:45;18.22;71.12
73829;SHT30;62176;48.450;-4.466;2022-07-21T02:35:10;18.22;71.10
73829;SHT30;62176;48.450;-4.466;2022-07-21T02:37:37;18.25;71.22
73829;SHT30;62176;48.450;-4.466;2022-07-21T02:40:03;18.28;70.84
73829;SHT30;62176;48.450;-4.466;2022-07-21T02:42:29;18.23;70.38
73829;SHT30;62176;48.450;-4.466;2022-07-21T02:44:54;18.23;70.94
73829;SHT30;62176;48.450;-4.466;2022-07-21T02:47:20;18.21;70.77
73829;SHT30;62176;48.450;-4.466;2022-07-21T02:49:45;18.17;70.78
73829;SHT30;62176;48.450;-4.466;2022-07-21T02:52:13;18.19;70.73
73829;SHT30;62176;48.450;-4.466;2022-07-21T02:54:38;18.19;71.11
73829;SHT30;62176;48.450;-4.466;2022-07-21T02:57:04;18.19;70.86
73829;SHT30;62176;48.450;-4.466;2022-07-21T02:59:29;18.22;70.41
73829;SHT30;62176;48.450;-4.466;2022-07-21T03:01:54;18.17;70.76
73829;SHT30;62176;48.450;-4.466;2022-07-21T03:04:20;18.17;70.88
73829;SHT30;62176;48.450;-4.466;2022-07-21T03:06:45;18.19;70.66
73829;SHT30;62176;48.450;-4.466;2022-07-21T03:09:11;18.17;70.46
73829;SHT30;62176;48.450;-4.466;2022-07-21T03:11:36;18.21;70.75
73829;SHT30;62176;48.450;-4.466;2022-07-21T03:14:02;18.22;70.53
73829;SHT30;62176;48.450;-4.466;2022-07-21T03:16:28;18.25;70.43
73829;SHT30;62176;48.450;-4.466;2022-07-21T03:18:53;18.23;71.02
73829;SHT30;62176;48.450;-4.466;2022-07-21T03:21:19;18.21;70.41
73829;SHT30;62176;48.450;-4.466;2022-07-21T03:23:44;18.17;70.86
73829;SHT30;62176;48.450;-4.466;2022-07-21T03:26:13;18.17;70.67
73829;SHT30;62176;48.450;-4.466;2022-07-21T03:28:40;18.16;70.35
73829;SHT30;62176;48.450;-4.466;2022-07-21T03:31:05;18.12;70.55
73829;SHT30;62176;48.450;-4.466;2022-07-21T03:33:31;18.10;70.30
73829;SHT30;62176;48.450;-4.466;2022-07-21T03:35:56;18.12;70.32
73829;SHT30;62176;48.450;-4.466;2022-07-21T03:38:24;18.12;70.60
73829;SHT30;62176;48.450;-4.466;2022-07-21T03:40:50;18.10;70.66
73829;SHT30;62176;48.450;-4.466;2022-07-21T03:43:15;18.10;70.89
73829;SHT30;62176;48.450;-4.466;2022-07-21T03:45:41;18.14;70.38
73829;SHT30;62176;48.450;-4.466;2022-07-21T03:48:07;18.08;70.63
73829;SHT30;62176;48.450;-4.466;2022-07-21T03:50:34;18.08;70.41
73829;SHT30;62176;48.450;-4.466;2022-07-21T03:53:00;18.06;70.86
73829;SHT30;62176;48.450;-4.466;2022-07-21T03:55:27;18.05;70.40
73829;SHT30;62176;48.450;-4.466;2022-07-21T03:58:04;18.06;70.76
73829;SHT30;62176;48.450;-4.466;2022-07-21T04:00:36;18.12;70.68
73829;SHT30;62176;48.450;-4.466;2022-07-21T04:03:02;18.12;70.53
73829;SHT30;62176;48.450;-4.466;2022-07-21T04:05:28;18.08;70.51
73829;SHT30;62176;48.450;-4.466;2022-07-21T04:07:55;18.08;70.41
73829;SHT30;62176;48.450;-4.466;2022-07-21T04:10:24;18.09;70.33
73829;SHT30;62176;48.450;-4.466;2022-07-21T04:12:49;18.10;70.19
73829;SHT30;62176;48.450;-4.466;2022-07-21T04:15:15;18.03;70.26
73829;SHT30;62176;48.450;-4.466;2022-07-21T04:17:41;18.02;70.73
73829;SHT30;62176;48.450;-4.466;2022-07-21T04:20:09;18.05;70.69
73829;SHT30;62176;48.450;-4.466;2022-07-21T04:22:35;18.06;70.68
73829;SHT30;62176;48.450;-4.466;2022-07-21T04:25:01;18.06;70.67
73829;SHT30;62176;48.450;-4.466;2022-07-21T04:27:27;18.05;70.78
73829;SHT30;62176;48.450;-4.466;2022-07-21T04:29:52;18.06;70.59
73829;SHT30;62176;48.450;-4.466;2022-07-21T04:32:19;18.06;70.56
73829;SHT30;62176;48.450;-4.466;2022-07-21T04:34:44;18.08;70.70
73829;SHT30;62176;48.450;-4.466;2022-07-21T04:37:10;18.13;70.67
73829;SHT30;62176;48.450;-4.466;2022-07-21T04:39:35;18.14;70.14
73829;SHT30;62176;48.450;-4.466;2022-07-21T04:42:01;18.13;70.42
73829;SHT30;62176;48.450;-4.466;2022-07-21T04:44:26;18.14;70.28
73829;SHT30;62176;48.450;-4.466;2022-07-21T04:46:52;18.14;70.91
73829;SHT30;62176;48.450;-4.466;2022-07-21T04:49:17;18.17;70.38
73829;SHT30;62176;48.450;-4.466;2022-07-21T04:51:43;18.19;70.97
73829;SHT30;62176;48.450;-4.466;2022-07-21T04:54:08;18.16;70.19
73829;SHT30;62176;48.450;-4.466;2022-07-21T04:56:34;18.14;70.53
73829;SHT30;62176;48.450;-4.466;2022-07-21T04:59:01;18.14;70.07
73829;SHT30;62176;48.450;-4.466;2022-07-21T05:01:27;18.14;69.84
73829;SHT30;62176;48.450;-4.466;2022-07-21T05:03:52;18.14;70.62
73829;SHT30;62176;48.450;-4.466;2022-07-21T05:06:18;18.19;70.76
73829;SHT30;62176;48.450;-4.466;2022-07-21T05:08:43;18.17;69.52
73829;SHT30;62176;48.450;-4.466;2022-07-21T05:11:09;18.22;70.30
73829;SHT30;62176;48.450;-4.466;2022-07-21T05:13:34;18.17;70.19
73829;SHT30;62176;48.450;-4.466;2022-07-21T05:16:00;18.16;70.12
73829;SHT30;62176;48.450;-4.466;2022-07-21T05:18:25;18.19;70.67
73829;SHT30;62176;48.450;-4.466;2022-07-21T05:20:52;18.19;70.14
73829;SHT30;62176;48.450;-4.466;2022-07-21T05:23:17;18.21;70.09
73829;SHT30;62176;48.450;-4.466;2022-07-21T05:25:43;18.19;69.85
73829;SHT30;62176;48.450;-4.466;2022-07-21T05:28:08;18.23;69.48
73829;SHT30;62176;48.450;-4.466;2022-07-21T05:30:33;18.21;70.06
73829;SHT30;62176;48.450;-4.466;2022-07-21T05:33:00;18.22;70.19
73829;SHT30;62176;48.450;-4.466;2022-07-21T05:35:26;18.22;69.97
73829;SHT30;62176;48.450;-4.466;2022-07-21T05:37:51;18.19;69.78
73829;SHT30;62176;48.450;-4.466;2022-07-21T05:40:16;18.19;69.71
73829;SHT30;62176;48.450;-4.466;2022-07-21T05:42:42;18.21;70.09
73829;SHT30;62176;48.450;-4.466;2022-07-21T05:45:08;18.16;69.65
73829;SHT30;62176;48.450;-4.466;2022-07-21T05:47:34;18.19;69.91
73829;SHT30;62176;48.450;-4.466;2022-07-21T05:49:59;18.21;69.92
73829;SHT30;62176;48.450;-4.466;2022-07-21T05:52:25;18.19;69.72
73829;SHT30;62176;48.450;-4.466;2022-07-21T05:54:50;18.19;69.53
73829;SHT30;62176;48.450;-4.466;2022-07-21T05:57:16;18.16;70.25
73829;SHT30;62176;48.450;-4.466;2022-07-21T05:59:43;18.23;70.26
73829;SHT30;62176;48.450;-4.466;2022-07-21T06:02:09;18.28;69.59
73829;SHT30;62176;48.450;-4.466;2022-07-21T06:04:34;18.25;69.94
73829;SHT30;62176;48.450;-4.466;2022-07-21T06:06:59;18.29;69.56
73829;SHT30;62176;48.450;-4.466;2022-07-21T06:09:25;18.32;69.85
73829;SHT30;62176;48.450;-4.466;2022-07-21T06:11:50;18.32;69.30
73829;SHT30;62176;48.450;-4.466;2022-07-21T06:14:16;18.36;69.48
73829;SHT30;62176;48.450;-4.466;2022-07-21T06:16:41;18.39;69.41
73829;SHT30;62176;48.450;-4.466;2022-07-21T06:19:06;18.40;69.42
73829;SHT30;62176;48.450;-4.466;2022-07-21T06:21:32;18.44;69.21
73829;SHT30;62176;48.450;-4.466;2022-07-21T06:23:58;18.46;68.92
73829;SHT30;62176;48.450;-4.466;2022-07-21T06:26:24;18.49;69.53
73829;SHT30;62176;48.450;-4.466;2022-07-21T06:28:50;18.49;69.74
73829;SHT30;62176;48.450;-4.466;2022-07-21T06:31:15;18.52;68.75
73829;SHT30;62176;48.450;-4.466;2022-07-21T06:33:41;18.53;69.37
73829;SHT30;62176;48.450;-4.466;2022-07-21T06:36:07;18.57;69.19
73829;SHT30;62176;48.450;-4.466;2022-07-21T06:38:33;18.57;69.31
73829;SHT30;62176;48.450;-4.466;2022-07-21T06:40:58;18.63;69.04
73829;SHT30;62176;48.450;-4.466;2022-07-21T06:43:24;18.66;69.73
73829;SHT30;62176;48.450;-4.466;2022-07-21T06:45:49;18.71;69.43
73829;SHT30;62176;48.450;-4.466;2022-07-21T06:48:16;18.71;69.30
73829;SHT30;62176;48.450;-4.466;2022-07-21T06:50:42;18.76;69.84
73829;SHT30;62176;48.450;-4.466;2022-07-21T06:53:07;18.78;69.62
73829;SHT30;62176;48.450;-4.466;2022-07-21T06:55:33;18.84;69.13
73829;SHT30;62176;48.450;-4.466;2022-07-21T06:58:11;18.86;69.61
73829;SHT30;62176;48.450;-4.466;2022-07-21T07:00:37;18.91;69.53
73829;SHT30;62176;48.450;-4.466;2022-07-21T07:03:02;18.94;68.96
73829;SHT30;62176;48.450;-4.466;2022-07-21T07:05:28;19.03;69.57
73829;SHT30;62176;48.450;-4.466;2022-07-21T07:07:56;19.07;69.59
73829;SHT30;62176;48.450;-4.466;2022-07-21T07:10:21;19.10;68.93
73829;SHT30;62176;48.450;-4.466;2022-07-21T07:12:47;19.15;68.63
73829;SHT30;62176;48.450;-4.466;2022-07-21T07:15:12;19.17;68.89
73829;SHT30;62176;48.450;-4.466;2022-07-21T07:17:38;19.19;68.96
73829;SHT30;62176;48.450;-4.466;2022-07-21T07:20:04;19.24;68.70
73829;SHT30;62176;48.450;-4.466;2022-07-21T07:22:32;19.28;68.88
73829;SHT30;62176;48.450;-4.466;2022-07-21T07:24:57;19.29;68.62
73829;SHT30;62176;48.450;-4.466;2022-07-21T07:27:23;19.32;68.66
73829;SHT30;62176;48.450;-4.466;2022-07-21T07:29:48;19.36;67.59
73829;SHT30;62176;48.450;-4.466;2022-07-21T07:32:14;19.45;68.61
73829;SHT30;62176;48.450;-4.466;2022-07-21T07:34:39;19.47;67.97
73829;SHT30;62176;48.450;-4.466;2022-07-21T07:37:04;19.49;68.06
73829;SHT30;62176;48.450;-4.466;2022-07-21T07:39:30;19.54;68.00
73829;SHT30;62176;48.450;-4.466;2022-07-21T07:41:55;19.55;66.86
73829;SHT30;62176;48.450;-4.466;2022-07-21T07:44:22;19.58;66.54
73829;SHT30;62176;48.450;-4.466;2022-07-21T07:46:47;19.62;66.78
73829;SHT30;62176;48.450;-4.466;2022-07-21T07:49:13;19.68;66.29
73829;SHT30;62176;48.450;-4.466;2022-07-21T07:51:39;19.72;65.61
73829;SHT30;62176;48.450;-4.466;2022-07-21T07:54:05;19.72;64.68
73829;SHT30;62176;48.450;-4.466;2022-07-21T07:56:31;19.81;65.76
73829;SHT30;62176;48.450;-4.466;2022-07-21T07:58:56;19.83;64.60
73829;SHT30;62176;48.450;-4.466;2022-07-21T08:01:21;19.89;65.17
73829;SHT30;62176;48.450;-4.466;2022-07-21T08:03:47;19.97;63.53
73829;SHT30;62176;48.450;-4.466;2022-07-21T08:06:13;20.05;62.70
73829;SHT30;62176;48.450;-4.466;2022-07-21T08:08:38;20.06;63.67
73829;SHT30;62176;48.450;-4.466;2022-07-21T08:11:04;20.03;61.82
73829;SHT30;62176;48.450;-4.466;2022-07-21T08:13:29;20.06;61.20
73829;SHT30;62176;48.450;-4.466;2022-07-21T08:15:55;20.06;60.40
73829;SHT30;62176;48.450;-4.466;2022-07-21T08:18:20;20.06;60.89
73829;SHT30;62176;48.450;-4.466;2022-07-21T08:20:47;20.08;61.09
73829;SHT30;62176;48.450;-4.466;2022-07-21T08:23:14;19.99;59.45
73829;SHT30;62176;48.450;-4.466;2022-07-21T08:25:40;20.00;59.55
73829;SHT30;62176;48.450;-4.466;2022-07-21T08:28:07;20.02;58.14
73829;SHT30;62176;48.450;-4.466;2022-07-21T08:30:33;20.08;60.07
73829;SHT30;62176;48.450;-4.466;2022-07-21T08:32:59;20.13;60.60
73829;SHT30;62176;48.450;-4.466;2022-07-21T08:35:24;20.17;59.97
73829;SHT30;62176;48.450;-4.466;2022-07-21T08:37:58;20.19;57.66
73829;SHT30;62176;48.450;-4.466;2022-07-21T08:40:25;20.23;58.31
73829;SHT30;62176;48.450;-4.466;2022-07-21T08:42:52;20.29;56.84
73829;SHT30;62176;48.450;-4.466;2022-07-21T08:45:17;20.34;57.82
73829;SHT30;62176;48.450;-4.466;2022-07-21T08:47:43;20.40;56.53
73829;SHT30;62176;48.450;-4.466;2022-07-21T08:50:09;20.50;56.46
73829;SHT30;62176;48.450;-4.466;2022-07-21T08:52:35;20.56;57.60
73829;SHT30;62176;48.450;-4.466;2022-07-21T08:55:01;20.61;57.32
73829;SHT30;62176;48.450;-4.466;2022-07-21T08:57:26;20.63;57.38
73829;SHT30;62176;48.450;-4.466;2022-07-21T08:59:52;20.64;56.01
73829;SHT30;62176;48.450;-4.466;2022-07-21T09:02:32;20.67;58.79
73829;SHT30;62176;48.450;-4.466;2022-07-21T09:04:58;20.71;56.19
73829;SHT30;62176;48.450;-4.466;2022-07-21T09:07:24;20.71;56.14
73829;SHT30;62176;48.450;-4.466;2022-07-21T09:09:58;20.73;57.87
73829;SHT30;62176;48.450;-4.466;2022-07-21T09:12:25;20.80;56.65
73829;SHT30;62176;48.450;-4.466;2022-07-21T09:14:51;20.85;55.63
73829;SHT30;62176;48.450;-4.466;2022-07-21T09:17:18;20.91;54.82
73829;SHT30;62176;48.450;-4.466;2022-07-21T09:19:45;20.99;54.57
73829;SHT30;62176;48.450;-4.466;2022-07-21T09:22:17;21.08;56.86
73829;SHT30;62176;48.450;-4.466;2022-07-21T09:24:49;21.12;54.81
73829;SHT30;62176;48.450;-4.466;2022-07-21T09:27:22;21.18;53.90
73829;SHT30;62176;48.450;-4.466;2022-07-21T09:29:51;21.22;53.60
73829;SHT30;62176;48.450;-4.466;2022-07-21T09:32:25;21.31;52.17
73829;SHT30;62176;48.450;-4.466;2022-07-21T09:34:58;21.39;53.23
73829;SHT30;62176;48.450;-4.466;2022-07-21T09:37:25;21.48;52.05
73829;SHT30;62176;48.450;-4.466;2022-07-21T09:40:00;21.49;52.67
73829;SHT30;62176;48.450;-4.466;2022-07-21T09:42:38;21.45;51.75
73829;SHT30;62176;48.450;-4.466;2022-07-21T09:45:10;21.37;51.00
73829;SHT30;62176;48.450;-4.466;2022-07-21T09:47:36;21.39;50.82
73829;SHT30;62176;48.450;-4.466;2022-07-21T09:50:07;21.39;51.41
73829;SHT30;62176;48.450;-4.466;2022-07-21T09:52:36;21.46;50.52
73829;SHT30;62176;48.450;-4.466;2022-07-21T09:55:05;21.56;52.48
73829;SHT30;62176;48.450;-4.466;2022-07-21T09:57:31;21.65;52.73
73829;SHT30;62176;48.450;-4.466;2022-07-21T09:59:57;21.67;51.95
73829;SHT30;62176;48.450;-4.466;2022-07-21T10:02:28;21.70;51.16
73829;SHT30;62176;48.450;-4.466;2022-07-21T10:05:04;21.65;50.78
73829;SHT30;62176;48.450;-4.466;2022-07-21T10:07:31;21.66;52.02
73829;SHT30;62176;48.450;-4.466;2022-07-21T10:09:58;21.70;52.18
73829;SHT30;62176;48.450;-4.466;2022-07-21T10:12:25;21.75;53.81
73829;SHT30;62176;48.450;-4.466;2022-07-21T10:14:51;21.69;51.02
73829;SHT30;62176;48.450;-4.466;2022-07-21T10:17:18;21.75;50.95
73829;SHT30;62176;48.450;-4.466;2022-07-21T10:25:16;21.72;51.54
73829;SHT30;62176;48.450;-4.466;2022-07-21T10:30:41;21.63;51.06
73829;SHT30;62176;48.450;-4.466;2022-07-21T10:33:07;21.65;51.26
73829;SHT30;62176;48.450;-4.466;2022-07-21T10:35:33;21.73;50.28
73829;SHT30;62176;48.450;-4.466;2022-07-21T10:38:02;21.80;49.14
73829;SHT30;62176;48.450;-4.466;2022-07-21T10:48:03;21.70;50.32
73829;SHT30;62176;48.450;-4.466;2022-07-21T10:53:02;21.93;49.08
73829;SHT30;62176;48.450;-4.466;2022-07-21T10:55:30;22.06;52.16
73829;SHT30;62176;48.450;-4.466;2022-07-21T11:00:57;22.14;48.98
73829;SHT30;62176;48.450;-4.466;2022-07-21T11:03:37;22.12;46.70
73829;SHT30;62176;48.450;-4.466;2022-07-21T11:11:16;22.53;49.89
73829;SHT30;62176;48.450;-4.466;2022-07-21T11:14:07;22.60;46.86
73829;SHT30;62176;48.450;-4.466;2022-07-21T11:19:47;22.65;48.56
73829;SHT30;62176;48.450;-4.466;2022-07-21T11:24:46;22.95;48.81
73829;SHT30;62176;48.450;-4.466;2022-07-21T11:27:17;22.99;43.48
73829;SHT30;62176;48.450;-4.466;2022-07-21T11:29:45;22.98;45.17
73829;SHT30;62176;48.450;-4.466;2022-07-21T11:32:12;23.04;47.34
73829;SHT30;62176;48.450;-4.466;2022-07-21T11:37:05;23.09;44.52
73829;SHT30;62176;48.450;-4.466;2022-07-21T11:39:30;23.05;45.76
73829;SHT30;62176;48.450;-4.466;2022-07-21T11:42:04;23.01;45.56
73829;SHT30;62176;48.450;-4.466;2022-07-21T11:44:30;23.12;46.13
73829;SHT30;62176;48.450;-4.466;2022-07-21T11:46:58;23.25;46.75
73829;SHT30;62176;48.450;-4.466;2022-07-21T11:49:24;23.38;45.48
73829;SHT30;62176;48.450;-4.466;2022-07-21T11:52:04;23.49;45.82
73829;SHT30;62176;48.450;-4.466;2022-07-21T11:54:43;23.59;46.68
73829;SHT30;62176;48.450;-4.466;2022-07-21T11:57:09;23.69;46.73
73829;SHT30;62176;48.450;-4.466;2022-07-21T11:59:36;23.77;43.70
73829;SHT30;62176;48.450;-4.466;2022-07-21T12:02:18;23.79;45.76
73829;SHT30;62176;48.450;-4.466;2022-07-21T12:04:48;23.86;45.21
73829;SHT30;62176;48.450;-4.466;2022-07-21T12:10:15;23.63;42.80
73829;SHT30;62176;48.450;-4.466;2022-07-21T12:12:46;23.55;43.66
73829;SHT30;62176;48.450;-4.466;2022-07-21T12:15:21;23.58;45.03
73829;SHT30;62176;48.450;-4.466;2022-07-21T12:18:21;23.58;44.74
73829;SHT30;62176;48.450;-4.466;2022-07-21T12:20:49;23.69;44.89
73829;SHT30;62176;48.450;-4.466;2022-07-21T12:23:28;23.73;42.26
73829;SHT30;62176;48.450;-4.466;2022-07-21T12:25:55;23.76;44.31
73829;SHT30;62176;48.450;-4.466;2022-07-21T12:28:44;23.87;44.65
73829;SHT30;62176;48.450;-4.466;2022-07-21T12:31:14;23.94;43.67
73829;SHT30;62176;48.450;-4.466;2022-07-21T12:33:42;23.99;45.37
73829;SHT30;62176;48.450;-4.466;2022-07-21T12:36:08;24.07;43.94
73829;SHT30;62176;48.450;-4.466;2022-07-21T12:38:42;24.12;43.60
73829;SHT30;62176;48.450;-4.466;2022-07-21T12:41:10;24.13;42.68
73829;SHT30;62176;48.450;-4.466;2022-07-21T12:43:35;24.10;43.30
73829;SHT30;62176;48.450;-4.466;2022-07-21T12:46:15;24.06;41.26
73829;SHT30;62176;48.450;-4.466;2022-07-21T12:48:43;24.16;43.07
73829;SHT30;62176;48.450;-4.466;2022-07-21T12:51:13;24.31;42.87
73829;SHT30;62176;48.450;-4.466;2022-07-21T12:53:51;24.53;44.56
73829;SHT30;62176;48.450;-4.466;2022-07-21T12:56:22;24.63;42.59
73829;SHT30;62176;48.450;-4.466;2022-07-21T12:58:48;24.57;41.00
73829;SHT30;62176;48.450;-4.466;2022-07-21T13:01:15;24.53;41.87
73829;SHT30;62176;48.450;-4.466;2022-07-21T13:03:41;24.57;43.31
73829;SHT30;62176;48.450;-4.466;2022-07-21T13:06:08;24.69;42.77
73829;SHT30;62176;48.450;-4.466;2022-07-21T13:08:34;24.88;42.82
73829;SHT30;62176;48.450;-4.466;2022-07-21T13:11:00;24.94;41.98
73829;SHT30;62176;48.450;-4.466;2022-07-21T13:13:27;25.05;42.35
73829;SHT30;62176;48.450;-4.466;2022-07-21T13:15:53;25.15;42.24
73829;SHT30;62176;48.450;-4.466;2022-07-21T13:18:19;25.15;41.07
73829;SHT30;62176;48.450;-4.466;2022-07-21T13:20:45;25.09;41.68
73829;SHT30;62176;48.450;-4.466;2022-07-21T13:23:11;25.11;40.64
73829;SHT30;62176;48.450;-4.466;2022-07-21T13:25:36;25.15;40.12
73829;SHT30;62176;48.450;-4.466;2022-07-21T13:28:03;25.09;41.97
73829;SHT30;62176;48.450;-4.466;2022-07-21T13:30:28;25.16;41.67
73829;SHT30;62176;48.450;-4.466;2022-07-21T13:32:54;25.14;40.89
73829;SHT30;62176;48.450;-4.466;2022-07-21T13:35:20;25.28;41.32
73829;SHT30;62176;48.450;-4.466;2022-07-21T13:37:45;25.23;39.39
73829;SHT30;62176;48.450;-4.466;2022-07-21T13:40:12;25.26;40.27
73829;SHT30;62176;48.450;-4.466;2022-07-21T13:42:38;25.35;40.60
73829;SHT30;62176;48.450;-4.466;2022-07-21T13:45:04;25.29;41.02
73829;SHT30;62176;48.450;-4.466;2022-07-21T13:47:30;25.42;42.29
73829;SHT30;62176;48.450;-4.466;2022-07-21T13:49:56;25.54;41.48
73829;SHT30;62176;48.450;-4.466;2022-07-21T13:52:21;25.65;40.77
73829;SHT30;62176;48.450;-4.466;2022-07-21T13:54:47;25.66;41.69
73829;SHT30;62176;48.450;-4.466;2022-07-21T13:57:12;25.69;38.49
73829;SHT30;62176;48.450;-4.466;2022-07-21T13:59:37;25.65;38.52
73829;SHT30;62176;48.450;-4.466;2022-07-21T14:02:03;25.62;39.79
73829;SHT30;62176;48.450;-4.466;2022-07-21T14:04:29;25.70;40.84
73829;SHT30;62176;48.450;-4.466;2022-07-21T14:06:54;25.76;40.48
73829;SHT30;62176;48.450;-4.466;2022-07-21T14:09:19;25.76;38.81
73829;SHT30;62176;48.450;-4.466;2022-07-21T14:11:45;25.65;39.37
73829;SHT30;62176;48.450;-4.466;2022-07-21T14:14:11;25.69;41.07
73829;SHT30;62176;48.450;-4.466;2022-07-21T14:16:45;25.80;40.50
73829;SHT30;62176;48.450;-4.466;2022-07-21T14:19:10;25.70;39.86
73829;SHT30;62176;48.450;-4.466;2022-07-21T14:21:36;25.70;38.93
73829;SHT30;62176;48.450;-4.466;2022-07-21T14:24:02;25.80;39.96
73829;SHT30;62176;48.450;-4.466;2022-07-21T14:26:46;25.70;38.77
73829;SHT30;62176;48.450;-4.466;2022-07-21T14:29:11;25.58;40.31
73829;SHT30;62176;48.450;-4.466;2022-07-21T14:31:37;25.50;40.20
73829;SHT30;62176;48.450;-4.466;2022-07-21T14:34:02;25.38;40.14
73829;SHT30;62176;48.450;-4.466;2022-07-21T14:36:28;25.28;40.56
73829;SHT30;62176;48.450;-4.466;2022-07-21T14:38:53;24.99;39.76
73829;SHT30;62176;48.450;-4.466;2022-07-21T14:41:19;24.75;40.91
73829;SHT30;62176;48.450;-4.466;2022-07-21T14:43:44;24.68;41.25
73829;SHT30;62176;48.450;-4.466;2022-07-21T14:46:11;24.74;42.23
73829;SHT30;62176;48.450;-4.466;2022-07-21T14:48:36;24.72;42.32
73829;SHT30;62176;48.450;-4.466;2022-07-21T14:51:02;24.60;42.47
73829;SHT30;62176;48.450;-4.466;2022-07-21T14:53:27;24.48;42.43
73829;SHT30;62176;48.450;-4.466;2022-07-21T14:55:52;24.47;43.18
73829;SHT30;62176;48.450;-4.466;2022-07-21T14:58:18;24.33;43.25
73829;SHT30;62176;48.450;-4.466;2022-07-21T15:00:44;24.24;42.92
73829;SHT30;62176;48.450;-4.466;2022-07-21T15:03:09;24.10;42.35
73829;SHT30;62176;48.450;-4.466;2022-07-21T15:05:34;24.00;43.28
73829;SHT30;62176;48.450;-4.466;2022-07-21T15:08:00;23.87;43.50
73829;SHT30;62176;48.450;-4.466;2022-07-21T15:10:25;23.90;43.98
73829;SHT30;62176;48.450;-4.466;2022-07-21T15:12:51;23.87;43.49
73829;SHT30;62176;48.450;-4.466;2022-07-21T15:15:16;23.93;43.89
73829;SHT30;62176;48.450;-4.466;2022-07-21T15:17:42;24.03;43.32
73829;SHT30;62176;48.450;-4.466;2022-07-21T15:20:08;23.96;43.51
73829;SHT30;62176;48.450;-4.466;2022-07-21T15:22:33;24.10;44.11
73829;SHT30;62176;48.450;-4.466;2022-07-21T15:25:00;24.14;43.78
73829;SHT30;62176;48.450;-4.466;2022-07-21T15:27:26;24.13;43.78
73829;SHT30;62176;48.450;-4.466;2022-07-21T15:29:52;24.10;41.82
73829;SHT30;62176;48.450;-4.466;2022-07-21T15:32:18;24.07;43.27
73829;SHT30;62176;48.450;-4.466;2022-07-21T15:34:43;24.07;42.77
73829;SHT30;62176;48.450;-4.466;2022-07-21T15:37:09;23.84;43.47
73829;SHT30;62176;48.450;-4.466;2022-07-21T15:39:37;23.73;44.02
73829;SHT30;62176;48.450;-4.466;2022-07-21T15:42:02;23.70;45.15
73829;SHT30;62176;48.450;-4.466;2022-07-21T15:44:28;23.86;45.20
73829;SHT30;62176;48.450;-4.466;2022-07-21T15:46:53;23.87;44.25
73829;SHT30;62176;48.450;-4.466;2022-07-21T15:49:19;23.83;43.65
73829;SHT30;62176;48.450;-4.466;2022-07-21T15:51:45;23.84;44.38